Terminal Aerodrome Forecast
Issued by NWS Northern Indiana

Home | Current Version | Previous Version | Text Only | Print | Product List | Glossary Off
Versions: 1 2 3 4 5 6 7 8 9 10 11 12 13 14 15 16 17

021
FTUS43 KIWX 182332
TAFFWA
TAF
KFWA 182332Z 1900/1924 24006KT P6SM OVC005
     FM190900 22004KT 5SM BR OVC008
     FM191600 17004KT P6SM BKN020
     FM192200 11006KT P6SM BKN200=

USA.gov is the U.S. government's official web portal to all federal, state and local government web resources and services.